Time;durP1;ratioP1;P1;durP2;ratioP2;P2;SDS_P1;SDS_P2;PMS_P1;PMS_P2;Temp;Humidity;BMP_temperature;BMP_pressure;BME280_temperature;BME280_humidity;BME280_pressure;Samples;Min_cycle;Max_cycle;Signal;HPM_P1;HPM_P2
2023/04/15 00:02:17;;;;;;;15.52;9.85;;;;;;;6.03;69.01;96906.03;10400240;28;20529;-52
2023/04/15 00:07:16;;;;;;;17.45;9.00;;;;;;;5.96;70.06;96923.19;10399786;28;20108;-52
2023/04/15 00:12:15;;;;;;;14.82;9.20;;;;;;;5.95;70.15;96958.38;10403713;28;20496;-50
2023/04/15 00:17:14;;;;;;;14.95;8.48;;;;;;;5.99;69.07;96941.22;10406115;28;20143;-50
2023/04/15 00:22:13;;;;;;;16.63;9.65;;;;;;;5.94;69.91;96933.47;10406145;28;20035;-52
2023/04/15 00:27:13;;;;;;;21.85;13.23;;;;;;;5.95;69.88;96937.78;10406812;28;20115;-52
2023/04/15 00:32:12;;;;;;;21.38;14.18;;;;;;;5.84;70.49;96951.47;10405950;28;20139;-52
2023/04/15 00:37:11;;;;;;;21.23;12.27;;;;;;;5.84;70.84;96942.03;10405816;28;20111;-52
2023/04/15 00:42:12;;;;;;;;;;;;;;;5.69;71.12;96936.78;10406124;28;20067;-52
2023/04/15 00:47:11;;;;;;;20.05;11.13;;;;;;;5.62;71.36;96925.59;10405519;28;19976;-52
2023/04/15 00:52:10;;;;;;;;;;;;;;;5.47;71.79;96935.81;10405772;28;20120;-52
2023/04/15 00:57:09;;;;;;;15.10;8.35;;;;;;;5.20;71.09;96865.34;10404969;28;19935;-52
2023/04/15 01:02:08;;;;;;;14.32;8.35;;;;;;;5.68;70.69;96928.22;10405565;28;20036;-52
2023/04/15 01:07:08;;;;;;;12.02;7.82;;;;;;;5.75;70.58;96939.41;10405006;28;20039;-52
2023/04/15 01:12:10;;;;;;;11.95;7.18;;;;;;;5.87;70.37;96944.59;10406821;28;20522;-52
2023/04/15 01:17:10;;;;;;;11.75;6.70;;;;;;;6.00;69.39;96952.38;10404341;28;20119;-52
2023/04/15 01:22:09;;;;;;;;;;;;;;;6.09;69.60;96948.09;10404653;28;20068;-52
2023/04/15 01:27:08;;;;;;;15.20;9.23;;;;;;;6.09;69.17;96948.09;10404191;28;19916;-51
2023/04/15 01:32:06;;;;;;;16.83;11.75;;;;;;;6.08;69.87;96950.69;10404118;28;20040;-53
2023/04/15 01:37:05;;;;;;;17.80;10.95;;;;;;;6.18;69.12;96953.28;10404097;28;20478;-52
2023/04/15 01:42:04;;;;;;;19.00;11.20;;;;;;;6.25;68.98;96940.44;10403511;28;20473;-52
2023/04/15 01:47:04;;;;;;;17.60;10.55;;;;;;;6.23;69.09;96930.13;10403004;28;20461;-53
2023/04/15 01:52:03;;;;;;;14.05;9.23;;;;;;;6.30;68.65;96910.41;10403121;28;21399;-52
2023/04/15 01:57:02;;;;;;;16.60;9.30;;;;;;;6.24;68.80;96916.41;10402579;28;20313;-50
2023/04/15 02:02:01;;;;;;;15.68;8.50;;;;;;;6.17;68.65;96914.66;10403414;28;20090;-52
2023/04/15 02:07:00;;;;;;;13.55;7.40;;;;;;;6.03;68.72;96900.91;10383786;28;20123;-52
2023/04/15 02:11:59;;;;;;;20.48;11.00;;;;;;;5.93;69.43;96924.03;10402567;28;20036;-52
2023/04/15 02:17:05;;;;;;;18.25;11.07;;;;;;;5.92;69.85;96919.72;10402283;28;20592;-51
2023/04/15 02:22:06;;;;;;;19.83;12.55;;;;;;;5.69;71.08;96926.50;10401514;28;20082;-52
2023/04/15 02:27:05;;;;;;;17.95;11.88;;;;;;;5.51;71.50;96933.28;10401505;28;20080;-50
2023/04/15 02:32:04;;;;;;;18.83;12.48;;;;;;;5.12;72.89;96897.88;10400770;28;20454;-51
2023/04/15 02:37:04;;;;;;;17.67;12.18;;;;;;;5.35;72.16;96921.16;10402652;28;20064;-52
2023/04/15 02:42:04;;;;;;;15.27;10.20;;;;;;;5.24;73.26;96918.53;10403773;28;20076;-51
2023/04/15 02:47:05;;;;;;;13.68;8.68;;;;;;;5.23;72.60;96916.81;10404742;28;20076;-50
2023/04/15 02:52:05;;;;;;;18.98;9.82;;;;;;;5.06;72.44;96909.00;10404396;28;20509;-50
2023/04/15 02:57:05;;;;;;;15.25;8.20;;;;;;;4.98;72.88;96918.34;10404477;28;20091;-51
2023/04/15 03:02:06;;;;;;;10.25;6.10;;;;;;;4.51;73.91;96918.78;10403852;28;20068;-51
2023/04/15 03:07:05;;;;;;;13.98;6.25;;;;;;;4.36;74.51;96921.19;10403952;28;20059;-52
2023/04/15 03:12:04;;;;;;;13.45;8.13;;;;;;;3.94;74.79;96853.13;10404452;28;20501;-52
2023/04/15 03:17:03;;;;;;;15.98;9.50;;;;;;;4.38;74.32;96904.94;10404284;28;20072;-52
2023/04/15 03:22:02;;;;;;;15.15;8.82;;;;;;;4.57;73.97;96929.13;10403937;28;20029;-49
2023/04/15 03:27:01;;;;;;;14.52;9.02;;;;;;;4.64;73.85;96928.31;10404346;28;20062;-51
2023/04/15 03:32:00;;;;;;;14.20;9.10;;;;;;;4.70;73.70;96942.94;10403928;28;20490;-52
2023/04/15 03:36:59;;;;;;;;;;;;;;;4.62;74.10;96948.00;10403333;28;20060;-51
2023/04/15 03:41:58;;;;;;;15.90;10.43;;;;;;;4.61;75.06;96956.53;10400291;28;21162;-52
2023/04/15 03:46:57;;;;;;;;;;;;;;;4.64;74.67;96964.31;10402749;28;20481;-51
2023/04/15 03:51:56;;;;;;;16.27;9.25;;;;;;;4.64;74.66;96972.00;10408042;28;19917;-51
2023/04/15 03:56:55;;;;;;;14.15;9.18;;;;;;;4.71;75.04;96989.22;10409154;28;20071;-52
2023/04/15 04:01:54;;;;;;;18.38;10.55;;;;;;;4.76;74.75;96991.81;10408816;28;20064;-52
2023/04/15 04:06:53;;;;;;;22.95;13.98;;;;;;;4.78;75.20;96999.53;10407657;28;20534;-52
2023/04/15 04:11:52;;;;;;;23.98;15.50;;;;;;;4.85;75.14;97006.47;10407104;28;20031;-52
2023/04/15 04:16:51;;;;;;;20.60;13.02;;;;;;;3.94;75.52;96863.41;10406657;28;20499;-52
2023/04/15 04:21:51;;;;;;;22.95;14.32;;;;;;;4.78;75.51;96978.97;10407667;28;20025;-51
2023/04/15 04:26:50;;;;;;;19.40;13.05;;;;;;;5.13;75.82;97036.78;10406453;28;20698;-51
2023/04/15 04:31:49;;;;;;;37.75;21.80;;;;;;;5.23;76.62;97042.84;10405720;28;20044;-52
2023/04/15 04:36:48;;;;;;;30.88;20.83;;;;;;;5.37;76.12;97052.38;10405275;28;20140;-52
2023/04/15 04:41:47;;;;;;;33.90;21.55;;;;;;;5.48;76.24;97055.91;10406011;28;20111;-52
2023/04/15 04:46:46;;;;;;;33.47;21.70;;;;;;;5.63;76.06;97063.75;10405932;28;20048;-52
2023/04/15 04:51:45;;;;;;;28.35;18.05;;;;;;;5.85;75.50;97059.59;10406155;28;20122;-52
2023/04/15 04:56:45;;;;;;;33.80;21.48;;;;;;;6.02;75.67;97066.56;10405011;28;20079;-52
2023/04/15 05:01:44;;;;;;;;;;;;;;;6.26;75.04;97084.75;10405312;28;20119;-52
2023/04/15 05:06:42;;;;;;;15.75;7.93;;;;;;;6.25;74.53;97077.84;10405448;28;19924;-51
2023/04/15 05:11:41;;;;;;;12.40;8.07;;;;;;;6.37;75.00;97065.03;10406215;28;20126;-52
2023/04/15 05:16:40;;;;;;;13.85;8.02;;;;;;;6.65;73.55;97080.59;10405073;28;20059;-52
2023/04/15 05:21:39;;;;;;;15.25;7.75;;;;;;;6.90;73.53;97073.81;10404829;28;20189;-51
2023/04/15 05:26:38;;;;;;;16.83;10.80;;;;;;;7.25;71.21;97070.44;10404698;28;20109;-52
2023/04/15 05:31:37;;;;;;;14.75;8.15;;;;;;;7.35;70.72;97072.16;10404248;28;20557;-51
2023/04/15 05:36:36;;;;;;;14.02;8.25;;;;;;;7.47;71.07;97042.06;10405084;28;20544;-52
2023/04/15 05:41:35;;;;;;;;;;;;;;;7.99;69.84;97086.81;10402281;28;20075;-52
2023/04/15 05:46:34;;;;;;;12.02;7.00;;;;;;;8.28;68.71;97083.28;10403756;28;19927;-52
2023/04/15 05:51:33;;;;;;;11.38;7.55;;;;;;;8.56;67.94;97089.22;10404306;28;20032;-52
2023/04/15 05:56:32;;;;;;;11.32;6.57;;;;;;;8.88;67.10;97081.34;10404130;28;20526;-52
2023/04/15 06:01:32;;;;;;;7.65;4.70;;;;;;;9.03;65.23;97053.66;10358383;28;20173;-52
2023/04/15 06:06:31;;;;;;;8.35;5.03;;;;;;;9.56;64.21;97075.75;10403306;28;20127;-52
2023/04/15 06:11:30;;;;;;;7.72;4.80;;;;;;;9.85;63.12;97078.09;10402577;28;20028;-53
2023/04/15 06:16:29;;;;;;;12.18;5.38;;;;;;;10.13;61.05;97073.50;10401443;28;20064;-52
2023/04/15 06:21:28;;;;;;;8.80;4.97;;;;;;;10.28;60.50;97054.31;10403398;28;20119;-53
2023/04/15 06:26:27;;;;;;;9.32;6.10;;;;;;;10.74;60.20;97069.34;10399625;28;20131;-52
2023/04/15 06:31:26;;;;;;;7.35;3.42;;;;;;;11.09;58.90;97082.78;10399164;28;20044;-52
2023/04/15 06:36:25;;;;;;;8.30;3.95;;;;;;;11.36;57.65;97081.50;10399645;28;20032;-53
2023/04/15 06:41:24;;;;;;;6.93;3.50;;;;;;;11.76;57.20;97102.53;10401392;28;20107;-53
2023/04/15 06:46:23;;;;;;;;;;;;;;;12.08;55.96;97086.38;10402280;28;20080;-53
2023/04/15 06:51:22;;;;;;;7.25;4.25;;;;;;;12.28;54.03;97093.88;10402563;28;19969;-52
2023/04/15 06:56:22;;;;;;;7.47;4.53;;;;;;;12.49;53.53;97094.34;10403325;28;20132;-52
2023/04/15 07:01:21;;;;;;;;;;;;;;;12.68;52.37;97098.31;10402273;28;20515;-52
2023/04/15 07:06:20;;;;;;;5.67;3.60;;;;;;;12.80;52.32;97083.34;10401729;28;20385;-53
2023/04/15 07:11:20;;;;;;;7.70;3.72;;;;;;;13.09;51.46;97085.31;10401560;28;20090;-53
2023/04/15 07:16:18;;;;;;;5.85;3.08;;;;;;;13.32;51.13;97087.41;10401505;28;20199;-53
2023/04/15 07:21:17;;;;;;;4.30;2.50;;;;;;;13.56;50.14;97086.00;10404654;28;20037;-53
2023/04/15 07:26:16;;;;;;;;;;;;;;;13.86;50.08;97076.59;10410208;28;20135;-53
2023/04/15 07:31:16;;;;;;;5.60;2.50;;;;;;;13.97;49.32;97087.59;10410637;28;19978;-52
2023/04/15 07:36:15;;;;;;;4.35;2.20;;;;;;;14.24;48.62;97085.19;10409956;28;20120;-52
2023/04/15 07:41:14;;;;;;;;;;;;;;;14.51;46.65;97086.19;10412602;28;20123;-52
2023/04/15 07:46:13;;;;;;;3.33;1.80;;;;;;;14.70;43.81;97083.97;10409440;28;20440;-53
2023/04/15 07:51:12;;;;;;;7.53;1.77;;;;;;;14.92;44.50;97088.56;10391142;28;20498;-53
2023/04/15 07:56:11;;;;;;;5.30;2.50;;;;;;;15.00;43.90;97089.22;10408410;28;20119;-52
2023/04/15 08:01:10;;;;;;;;;;;;;;;14.92;41.38;97085.94;10408427;28;20123;-53
2023/04/15 08:06:09;;;;;;;8.37;2.37;;;;;;;15.07;41.45;97088.13;10409218;28;19912;-54
2023/04/15 08:11:08;;;;;;;;;;;;;;;15.38;40.95;97088.03;10408383;28;20464;-53
2023/04/15 08:16:21;;;;;;;3.88;1.65;;;;;;;15.61;39.57;97089.09;10400132;28;19924;-53
2023/04/15 08:21:20;;;;;;;4.38;1.50;;;;;;;15.81;38.76;97086.72;10408163;28;20123;-53
2023/04/15 08:26:20;;;;;;;6.55;2.17;;;;;;;16.07;38.36;97078.00;10408072;28;20060;-53
2023/04/15 08:31:19;;;;;;;3.95;2.03;;;;;;;16.46;36.72;97108.09;10399504;28;20484;-53
2023/04/15 08:36:18;;;;;;;5.78;2.10;;;;;;;16.39;35.91;97089.13;10407925;28;20574;-53
2023/04/15 08:41:25;;;;;;;3.78;1.70;;;;;;;16.46;34.66;97085.38;10405529;28;20139;-52
2023/04/15 08:46:24;;;;;;;3.08;1.48;;;;;;;16.63;34.19;97082.19;10404677;28;20139;-52
2023/04/15 08:51:24;;;;;;;2.70;1.30;;;;;;;16.77;33.85;97079.06;10403259;28;20131;-53
2023/04/15 08:56:27;;;;;;;2.67;1.52;;;;;;;16.75;32.52;97066.91;10406056;28;20480;-52
2023/04/15 09:01:26;;;;;;;3.35;1.58;;;;;;;17.08;33.34;97076.19;10408360;28;20059;-54
2023/04/15 09:06:26;;;;;;;6.70;1.83;;;;;;;17.12;32.61;97066.41;10402535;28;20060;-53
2023/04/15 09:11:25;;;;;;;2.67;1.58;;;;;;;17.24;32.78;97076.44;10403604;28;20536;-54
2023/04/15 09:16:25;;;;;;;6.80;2.08;;;;;;;17.54;33.71;97065.66;10405067;28;20143;-53
2023/04/15 09:21:24;;;;;;;3.60;1.85;;;;;;;17.74;30.34;97065.72;10404780;28;20068;-53
2023/04/15 09:26:36;;;;;;;2.67;1.38;;;;;;;17.75;29.48;97032.44;10405146;28;20098;-53
2023/04/15 09:31:36;;;;;;;4.63;1.60;;;;;;;18.02;30.61;97040.97;10404559;28;20136;-54
2023/04/15 09:36:48;;;;;;;3.17;1.20;;;;;;;17.84;28.57;97026.84;10404212;28;20147;-53
2023/04/15 09:42:05;;;;;;;6.15;1.60;;;;;;;18.15;29.15;97030.78;10384800;28;20105;-54
2023/04/15 09:47:04;;;;;;;3.17;1.30;;;;;;;18.31;29.72;97031.00;10403363;28;20143;-54
2023/04/15 09:52:04;;;;;;;3.97;1.30;;;;;;;18.34;28.07;97021.22;10403379;28;20064;-53
2023/04/15 09:57:07;;;;;;;1.98;1.38;;;;;;;18.66;28.67;97023.31;10402245;28;20580;-54
2023/04/15 10:02:06;;;;;;;5.00;1.80;;;;;;;19.08;28.45;97027.56;10400881;28;20131;-54
2023/04/15 10:07:08;;;;;;;2.03;1.20;;;;;;;19.45;29.07;97022.25;10403074;28;20119;-54
2023/04/15 10:12:07;;;;;;;2.95;1.30;;;;;;;19.59;28.76;97018.97;10398276;28;20139;-54
2023/04/15 10:17:07;;;;;;;2.63;1.40;;;;;;;19.89;28.76;96991.22;10403084;28;20067;-55
2023/04/15 10:22:07;;;;;;;4.60;2.45;;;;;;;20.22;29.02;97023.72;10396026;28;20596;-54
2023/04/15 10:27:06;;;;;;;4.57;1.48;;;;;;;20.47;27.51;97011.94;10402334;28;20124;-54
2023/04/15 10:32:06;;;;;;;1.85;1.58;;;;;;;20.37;27.50;96931.63;10399667;28;20132;-54
2023/04/15 10:37:08;;;;;;;3.00;1.20;;;;;;;20.97;25.84;97008.38;10402097;28;20608;-55
2023/04/15 10:42:14;;;;;;;2.75;1.42;;;;;;;21.42;26.52;97001.50;10400476;28;20147;-54
2023/04/15 10:47:18;;;;;;;2.58;1.48;;;;;;;21.84;26.26;96996.47;10399962;28;20135;-55
2023/04/15 10:52:22;;;;;;;2.78;1.45;;;;;;;21.96;24.19;96998.38;10374661;28;20393;-54
2023/04/15 10:57:22;;;;;;;3.00;1.20;;;;;;;21.86;23.19;96966.38;10400891;28;20508;-54
2023/04/15 11:02:22;;;;;;;2.38;1.33;;;;;;;22.32;24.67;96981.28;10402204;28;20123;-55
2023/04/15 11:07:37;;;;;;;3.17;1.60;;;;;;;22.41;23.89;96970.16;10383103;28;20075;-54
2023/04/15 11:12:36;;;;;;;3.70;1.48;;;;;;;22.69;22.98;96968.47;10399547;28;20127;-54
2023/04/15 11:17:35;;;;;;;2.75;1.50;;;;;;;22.26;22.14;96977.25;10401829;28;20144;-55
2023/04/15 11:22:34;;;;;;;2.88;1.35;;;;;;;22.11;22.93;96964.97;10401645;28;20128;-54
2023/04/15 11:27:33;;;;;;;1.85;1.40;;;;;;;22.21;24.35;96967.91;10401139;28;20125;-55
2023/04/15 11:32:32;;;;;;;3.80;1.45;;;;;;;22.48;23.91;96975.94;10401544;28;20044;-55
2023/04/15 11:37:31;;;;;;;3.58;1.98;;;;;;;22.94;23.93;96978.38;10400830;28;20039;-55
2023/04/15 11:42:30;;;;;;;2.45;1.30;;;;;;;22.77;22.85;96924.75;10400741;28;20474;-54
2023/04/15 11:47:29;;;;;;;4.32;1.40;;;;;;;23.10;24.65;96963.22;10400471;28;20044;-54
2023/04/15 11:52:28;;;;;;;1.20;1.10;;;;;;;23.48;24.15;96972.31;10398801;28;20492;-54
2023/04/15 11:57:30;;;;;;;2.50;1.25;;;;;;;23.38;22.62;96957.00;10400232;28;20449;-55
2023/04/15 12:02:31;;;;;;;6.43;2.25;;;;;;;21.96;23.25;96916.50;10398699;28;20679;-54
2023/04/15 12:07:29;;;;;;;3.25;1.25;;;;;;;;;;10396827;28;20123;-54
2023/04/15 12:12:29;;;;;;;3.05;1.33;;;;;;;22.34;24.86;96955.63;10402858;28;20032;-54
2023/04/15 12:17:28;;;;;;;3.25;1.40;;;;;;;22.45;22.81;96939.94;10406278;28;20079;-54
2023/04/15 12:22:27;;;;;;;3.17;1.58;;;;;;;22.65;24.37;96948.44;10407208;28;20143;-54
2023/04/15 12:27:27;;;;;;;1.80;1.30;;;;;;;22.97;24.06;96941.13;10407524;28;20489;-54
2023/04/15 12:32:26;;;;;;;2.22;1.38;;;;;;;23.03;24.40;96935.47;10384139;28;20131;-54
2023/04/15 12:37:25;;;;;;;1.50;1.20;;;;;;;23.13;24.21;96941.00;10405118;28;20144;-54
2023/04/15 12:42:24;;;;;;;3.60;1.55;;;;;;;23.05;22.11;96943.31;10404559;28;20035;-54
2023/04/15 12:47:22;;;;;;;2.38;1.50;;;;;;;23.21;22.48;96944.88;10404028;28;20422;-54
2023/04/15 12:52:23;;;;;;;1.80;1.35;;;;;;;23.07;24.37;96931.69;10405905;28;20120;-54
2023/04/15 12:57:22;;;;;;;3.13;1.38;;;;;;;23.28;23.86;96947.09;10405815;28;20079;-55
2023/04/15 13:02:24;;;;;;;2.55;1.30;;;;;;;23.34;22.93;96950.19;10406985;28;20548;-54
2023/04/15 13:07:23;;;;;;;4.00;2.00;;;;;;;23.26;22.91;96949.88;10403842;28;20123;-54
2023/04/15 13:12:22;;;;;;;5.45;1.40;;;;;;;22.91;22.39;96952.13;10405094;28;20040;-55
2023/04/15 13:17:20;;;;;;;4.70;1.77;;;;;;;22.99;23.86;96955.97;10407443;28;20517;-54
2023/04/15 13:22:19;;;;;;;1.63;1.50;;;;;;;23.36;24.04;96950.94;10404502;28;20139;-54
2023/04/15 13:27:18;;;;;;;2.92;1.40;;;;;;;23.70;23.78;96947.88;10403356;28;20131;-55
2023/04/15 13:32:17;;;;;;;2.88;1.60;;;;;;;23.79;23.37;96941.97;10405702;28;20083;-55
2023/04/15 13:37:16;;;;;;;3.92;1.92;;;;;;;23.70;22.99;96932.00;10406645;28;20124;-55
2023/04/15 13:42:15;;;;;;;10.10;2.45;;;;;;;23.86;24.06;96940.59;10398717;28;20136;-55
2023/04/15 13:47:15;;;;;;;4.80;1.48;;;;;;;23.96;23.95;96933.75;10398383;28;20037;-55
2023/04/15 13:52:14;;;;;;;2.78;1.30;;;;;;;23.99;22.91;96930.88;10399054;28;20079;-55
2023/04/15 13:57:13;;;;;;;3.10;1.33;;;;;;;23.90;22.60;96926.22;10401521;28;20132;-55
2023/04/15 14:02:12;;;;;;;3.80;1.50;;;;;;;23.71;22.91;96900.13;10401467;28;20119;-55
2023/04/15 14:07:11;;;;;;;2.08;1.42;;;;;;;24.05;21.86;96916.34;10384761;28;20414;-55
2023/04/15 14:12:10;;;;;;;6.40;2.08;;;;;;;23.75;22.66;96914.03;10400408;28;20036;-55
2023/04/15 14:17:09;;;;;;;4.13;1.73;;;;;;;23.62;23.79;96932.53;10403065;28;20120;-55
2023/04/15 14:22:08;;;;;;;5.30;1.33;;;;;;;23.46;23.32;96922.06;10403031;28;20040;-54
2023/04/15 14:27:07;;;;;;;2.45;1.40;;;;;;;23.04;21.98;96920.44;10403093;28;20021;-54
2023/04/15 14:32:06;;;;;;;4.03;1.50;;;;;;;22.23;21.58;96935.16;10401928;28;20150;-54
2023/04/15 14:37:05;;;;;;;5.32;1.73;;;;;;;21.38;22.13;96927.84;10401692;28;20051;-54
2023/04/15 14:42:04;;;;;;;2.25;1.25;;;;;;;21.09;23.09;96931.19;10400672;28;20127;-54
2023/04/15 14:47:04;;;;;;;4.32;1.40;;;;;;;20.61;23.91;96930.34;10396906;28;20135;-54
2023/04/15 14:52:03;;;;;;;2.78;1.50;;;;;;;20.89;25.09;96931.44;10400130;28;20167;-54
2023/04/15 14:57:04;;;;;;;4.05;1.42;;;;;;;21.44;26.26;96936.28;10397159;28;20064;-54
2023/04/15 15:02:03;;;;;;;4.35;2.00;;;;;;;21.77;25.40;96937.88;10396125;28;20537;-54
2023/04/15 15:07:02;;;;;;;4.03;1.58;;;;;;;21.96;24.92;96938.47;10399425;28;20554;-54
2023/04/15 15:12:01;;;;;;;2.20;1.50;;;;;;;21.98;25.16;96927.81;10396388;28;20490;-54
2023/04/15 15:17:00;;;;;;;3.95;1.85;;;;;;;21.99;25.21;96931.34;10400799;28;20123;-54
2023/04/15 15:21:58;;;;;;;3.00;1.63;;;;;;;;;;10397077;28;20033;-54
2023/04/15 15:26:57;;;;;;;2.65;1.60;;;;;;;21.84;24.40;96931.28;10400788;28;20685;-54
2023/04/15 15:31:56;;;;;;;4.63;2.00;;;;;;;21.71;24.53;96927.66;10399872;28;20067;-54
2023/04/15 15:36:56;;;;;;;4.13;2.13;;;;;;;21.31;24.69;96870.16;10398234;28;20076;-54
2023/04/15 15:41:55;;;;;;;4.82;1.60;;;;;;;21.62;25.43;96928.25;10402122;28;20124;-54
2023/04/15 15:46:54;;;;;;;4.85;2.22;;;;;;;21.53;24.49;96930.47;10408268;28;20067;-54
2023/04/15 15:51:53;;;;;;;3.70;1.90;;;;;;;21.28;24.35;96906.41;10408535;28;20060;-54
2023/04/15 15:56:52;;;;;;;3.88;1.67;;;;;;;21.41;24.61;96925.06;10407829;28;20128;-54
2023/04/15 16:01:51;;;;;;;2.88;1.77;;;;;;;21.28;24.89;96924.91;10407482;28;20029;-54
2023/04/15 16:06:50;;;;;;;3.90;2.00;;;;;;;21.05;24.66;96931.44;10408402;28;20037;-55
2023/04/15 16:11:49;;;;;;;6.35;3.72;;;;;;;20.66;27.56;96930.09;10362406;28;20097;-55
2023/04/15 16:16:48;;;;;;;9.93;5.40;;;;;;;20.31;29.00;96924.91;10405764;28;20111;-54
2023/04/15 16:21:47;;;;;;;10.65;4.75;;;;;;;19.66;29.19;96857.19;10400934;28;20378;-54
2023/04/15 16:26:46;;;;;;;6.13;4.47;;;;;;;19.89;30.15;96930.66;10404480;28;20446;-54
2023/04/15 16:31:46;;;;;;;10.13;5.43;;;;;;;19.06;31.02;96859.31;10404562;28;20028;-54
2023/04/15 16:36:45;;;;;;;11.13;6.32;;;;;;;18.74;31.90;96922.22;10405565;28;20968;-54
2023/04/15 16:41:44;;;;;;;18.90;9.98;;;;;;;18.47;32.97;96932.19;10406536;28;20464;-54
2023/04/15 16:46:43;;;;;;;17.38;9.85;;;;;;;18.13;33.66;96932.88;10404612;28;20119;-54
2023/04/15 16:51:42;;;;;;;14.18;7.70;;;;;;;17.94;33.96;96932.81;10402825;28;20601;-54
2023/04/15 16:56:41;;;;;;;8.43;4.15;;;;;;;17.64;34.51;96933.19;10393420;28;20439;-54
2023/04/15 17:01:40;;;;;;;13.85;6.68;;;;;;;17.48;35.44;96946.09;10405153;28;20508;-53
2023/04/15 17:06:38;;;;;;;10.50;5.05;;;;;;;17.20;35.95;96948.16;10404000;28;20028;-53
2023/04/15 17:11:39;;;;;;;;;;;;;;;17.09;36.18;96961.69;10406199;28;20487;-53
2023/04/15 17:16:39;;;;;;;14.50;7.03;;;;;;;16.97;37.10;96965.63;10404422;28;20011;-53
2023/04/15 17:21:37;;;;;;;14.88;7.72;;;;;;;16.80;38.10;96968.88;10403411;28;20143;-53
2023/04/15 17:26:37;;;;;;;8.85;4.93;;;;;;;16.72;38.25;96976.16;10404632;28;20024;-53
2023/04/15 17:31:36;;;;;;;9.68;4.22;;;;;;;16.64;38.63;96981.72;10403669;28;20084;-54
2023/04/15 17:36:35;;;;;;;8.50;4.50;;;;;;;16.57;39.30;96989.88;10402865;28;20155;-53
2023/04/15 17:41:34;;;;;;;10.57;6.13;;;;;;;16.08;38.89;96927.06;10404129;28;20127;-52
2023/04/15 17:46:33;;;;;;;9.15;5.50;;;;;;;16.48;38.93;97012.84;10399435;28;20123;-52
2023/04/15 17:51:32;;;;;;;11.07;7.13;;;;;;;16.44;38.58;97013.91;10401926;28;20039;-52
2023/04/15 17:56:32;;;;;;;16.23;7.90;;;;;;;16.08;37.73;96975.00;10397933;28;20902;-54
2023/04/15 18:01:31;;;;;;;19.20;10.73;;;;;;;16.23;36.74;97004.16;10403024;28;20083;-53
2023/04/15 18:06:30;;;;;;;16.33;10.15;;;;;;;16.24;36.72;97029.47;10399077;28;20036;-53
2023/04/15 18:11:32;;;;;;;;;;;;;;;16.13;37.84;97042.91;10400783;28;20032;-53
2023/04/15 18:16:31;;;;;;;10.90;6.38;;;;;;;15.86;37.99;97068.28;10394839;28;20019;-52
2023/04/15 18:21:30;;;;;;;9.50;4.30;;;;;;;15.20;40.00;97071.19;10401144;28;20111;-53
2023/04/15 18:26:29;;;;;;;7.97;5.07;;;;;;;15.01;40.21;97080.47;10401815;28;20086;-52
2023/04/15 18:31:28;;;;;;;;;;;;;;;14.91;40.97;97081.63;10401782;28;20075;-53
2023/04/15 18:36:26;;;;;;;7.73;3.87;;;;;;;14.58;41.26;97090.34;10393637;28;19923;-53
2023/04/15 18:41:26;;;;;;;;;;;;;;;14.74;41.50;97093.44;10400347;28;20662;-52
2023/04/15 18:46:24;;;;;;;3.78;2.40;;;;;;;14.75;40.53;97081.22;10397822;28;20325;-52
2023/04/15 18:51:23;;;;;;;;;;;;;;;14.79;39.67;97086.31;10401666;28;20038;-52
2023/04/15 18:56:22;;;;;;;8.63;4.43;;;;;;;14.80;39.88;97082.81;10398733;28;19920;-53
2023/04/15 19:01:21;;;;;;;;;;;;;;;14.85;40.30;97090.53;10403598;28;20067;-52
2023/04/15 19:06:21;;;;;;;8.53;4.47;;;;;;;14.87;40.60;97101.75;10401266;28;19999;-52
2023/04/15 19:11:20;;;;;;;7.00;4.13;;;;;;;14.85;40.67;97102.69;10400367;28;20203;-52
2023/04/15 19:16:19;;;;;;;20.40;10.90;;;;;;;14.85;40.80;97100.09;10401662;28;20510;-52
2023/04/15 19:21:18;;;;;;;9.77;5.20;;;;;;;14.74;40.62;97100.41;10408708;28;20075;-52
2023/04/15 19:26:17;;;;;;;;;;;;;;;14.87;40.88;97120.03;10407847;28;20036;-53
2023/04/15 19:31:16;;;;;;;10.13;4.82;;;;;;;14.89;43.59;97125.22;10408869;28;20192;-52
2023/04/15 19:36:17;;;;;;;;;;;;;;;14.82;49.08;97129.78;10410071;28;20128;-53
2023/04/15 19:41:15;;;;;;;5.68;2.85;;;;;;;14.74;51.98;97124.78;10410796;28;20385;-53
2023/04/15 19:46:14;;;;;;;;;;;;;;;14.67;53.97;97125.81;10402959;28;20506;-52
2023/04/15 19:51:13;;;;;;;5.10;2.88;;;;;;;14.27;54.01;97082.50;10407043;28;20460;-53
2023/04/15 19:56:12;;;;;;;6.43;3.50;;;;;;;14.50;54.74;97138.44;10388414;28;20469;-52
2023/04/15 20:01:11;;;;;;;;;;;;;;;14.34;59.47;97138.84;10408193;28;20119;-53
2023/04/15 20:06:10;;;;;;;22.05;12.90;;;;;;;14.09;60.82;97132.56;10390148;28;20426;-53
2023/04/15 20:11:09;;;;;;;;;;;;;;;13.94;61.64;97150.28;10390172;28;20127;-53
2023/04/15 20:16:08;;;;;;;10.18;6.43;;;;;;;13.91;62.35;97149.50;10389895;28;19989;-53
2023/04/15 20:21:07;;;;;;;8.02;5.07;;;;;;;13.83;64.00;97147.09;10404199;28;20463;-53
2023/04/15 20:26:06;;;;;;;;;;;;;;;13.77;66.26;97152.44;10405200;28;20478;-53
2023/04/15 20:31:05;;;;;;;10.25;5.60;;;;;;;13.62;66.54;97152.81;10404668;28;19939;-52
2023/04/15 20:36:04;;;;;;;11.18;4.85;;;;;;;13.28;68.43;97135.25;10402195;28;20036;-52
2023/04/15 20:41:03;;;;;;;;;;;;;;;13.17;69.97;97152.91;10404550;28;20076;-52
2023/04/15 20:46:02;;;;;;;7.10;4.35;;;;;;;13.04;72.08;97166.16;10408552;28;19998;-52
2023/04/15 20:51:00;;;;;;;6.05;3.67;;;;;;;12.64;74.02;97130.47;10406539;28;20123;-53
2023/04/15 20:55:59;;;;;;;6.30;3.60;;;;;;;12.58;74.41;97146.25;10403589;28;20043;-54
2023/04/15 21:01:00;;;;;;;6.25;3.42;;;;;;;12.74;75.20;97198.84;10405653;28;20163;-53
2023/04/15 21:05:59;;;;;;;5.72;3.45;;;;;;;12.41;74.71;97174.28;10404085;28;20068;-52
2023/04/15 21:10:58;;;;;;;;;;;;;;;12.55;73.65;97208.72;10405724;28;20043;-53
2023/04/15 21:15:57;;;;;;;8.23;3.60;;;;;;;12.48;74.93;97226.19;10405721;28;20007;-53
2023/04/15 21:20:57;;;;;;;7.15;3.55;;;;;;;12.28;77.30;97241.31;10404752;28;20124;-52
2023/04/15 21:25:57;;;;;;;7.13;4.05;;;;;;;11.82;78.18;97201.22;10406228;28;20067;-52
2023/04/15 21:30:56;;;;;;;6.65;3.42;;;;;;;11.88;80.03;97263.53;10404794;28;20067;-52
2023/04/15 21:35:55;;;;;;;;;;;;;;;11.81;80.34;97267.09;10403252;28;20132;-52
2023/04/15 21:40:54;;;;;;;8.18;3.38;;;;;;;11.70;82.34;97271.56;10403682;28;20201;-52
2023/04/15 21:45:53;;;;;;;6.82;3.50;;;;;;;11.73;82.08;97268.94;10402654;28;20123;-53
2023/04/15 21:50:58;;;;;;;7.68;3.80;;;;;;;11.82;82.56;97265.34;10404064;28;20091;-52
2023/04/15 21:55:56;;;;;;;7.22;4.00;;;;;;;11.89;81.76;97266.97;10403287;28;20119;-52
2023/04/15 22:00:58;;;;;;;9.32;3.60;;;;;;;11.80;82.83;97275.75;10404523;28;20104;-53
2023/04/15 22:06:01;;;;;;;8.30;3.63;;;;;;;11.58;83.01;97267.41;10403322;28;20097;-52
2023/04/15 22:11:00;;;;;;;8.00;3.35;;;;;;;11.60;83.28;97262.19;10400280;28;20538;-53
2023/04/15 22:15:59;;;;;;;5.25;3.30;;;;;;;11.40;83.93;97245.09;10396971;28;20530;-53
2023/04/15 22:21:00;;;;;;;;;;;;;;;11.41;84.76;97251.19;10396025;28;20475;-53
2023/04/15 22:25:59;;;;;;;7.72;3.53;;;;;;;11.39;85.95;97256.38;10398186;28;19960;-52
2023/04/15 22:30:58;;;;;;;;;;;;;;;11.33;86.16;97259.03;10402819;28;20127;-53
2023/04/15 22:35:57;;;;;;;5.00;3.03;;;;;;;11.38;85.52;97248.59;10402517;28;20379;-53
2023/04/15 22:40:56;;;;;;;5.97;3.47;;;;;;;11.55;85.35;97237.97;10384144;28;20127;-52
2023/04/15 22:45:55;;;;;;;7.45;3.58;;;;;;;11.52;84.56;97225.88;10402486;28;20090;-52
2023/04/15 22:50:54;;;;;;;6.03;3.55;;;;;;;11.64;83.50;97236.16;10400998;28;20146;-52
2023/04/15 22:55:53;;;;;;;5.60;3.03;;;;;;;11.60;84.11;97228.41;10402111;28;20119;-52
2023/04/15 23:00:52;;;;;;;;;;;;;;;11.63;83.61;97225.75;10401723;28;20452;-53
2023/04/15 23:05:51;;;;;;;9.40;4.22;;;;;;;11.49;83.82;97212.94;10401978;28;20339;-53
2023/04/15 23:10:50;;;;;;;7.55;4.68;;;;;;;11.36;83.52;97204.47;10401491;28;20135;-52
2023/04/15 23:15:49;;;;;;;9.75;4.25;;;;;;;11.43;82.82;97207.81;10402129;28;20044;-52
2023/04/15 23:20:48;;;;;;;7.43;4.18;;;;;;;11.41;82.83;97210.47;10401840;28;20032;-52
2023/04/15 23:25:47;;;;;;;6.47;4.05;;;;;;;11.40;82.59;97208.72;10401734;28;20131;-52